sensor_id;sensor_type;location;lat;lon;timestamp;temperature;humidity
21590;DHT22;10957;50.968;6.828;2022-09-01T00:00:11;15.60;99.90
21590;DHT22;10957;50.968;6.828;2022-09-01T00:05:13;15.50;99.90
21590;DHT22;10957;50.968;6.828;2022-09-01T00:10:14;15.50;99.90
21590;DHT22;10957;50.968;6.828;2022-09-01T00:15:15;15.50;99.90
21590;DHT22;10957;50.968;6.828;2022-09-01T00:20:17;15.00;99.90
21590;DHT22;10957;50.968;6.828;2022-09-01T00:25:19;15.20;99.90
21590;DHT22;10957;50.968;6.828;2022-09-01T00:30:20;15.20;99.90
21590;DHT22;10957;50.968;6.828;2022-09-01T00:35:21;15.20;99.90
21590;DHT22;10957;50.968;6.828;2022-09-01T00:40:23;15.20;99.90
21590;DHT22;10957;50.968;6.828;2022-09-01T00:45:23;15.40;99.90
21590;DHT22;10957;50.968;6.828;2022-09-01T00:50:24;15.30;99.90
21590;DHT22;10957;50.968;6.828;2022-09-01T00:55:30;15.20;99.90
21590;DHT22;10957;50.968;6.828;2022-09-01T01:00:35;14.80;99.90
21590;DHT22;10957;50.968;6.828;2022-09-01T01:05:44;15.20;99.90
21590;DHT22;10957;50.968;6.828;2022-09-01T01:10:53;14.90;99.90
21590;DHT22;10957;50.968;6.828;2022-09-01T01:15:54;14.90;99.90
21590;DHT22;10957;50.968;6.828;2022-09-01T01:21:04;15.10;99.90
21590;DHT22;10957;50.968;6.828;2022-09-01T01:26:24;14.70;99.90
21590;DHT22;10957;50.968;6.828;2022-09-01T01:31:26;14.90;99.90
21590;DHT22;10957;50.968;6.828;2022-09-01T01:36:31;15.10;99.90
21590;DHT22;10957;50.968;6.828;2022-09-01T01:41:38;14.90;99.90
21590;DHT22;10957;50.968;6.828;2022-09-01T01:46:48;14.30;99.90
21590;DHT22;10957;50.968;6.828;2022-09-01T01:51:52;14.60;99.90
21590;DHT22;10957;50.968;6.828;2022-09-01T01:56:58;14.50;99.90
21590;DHT22;10957;50.968;6.828;2022-09-01T02:01:59;14.40;99.90
21590;DHT22;10957;50.968;6.828;2022-09-01T02:07:03;14.40;99.90
21590;DHT22;10957;50.968;6.828;2022-09-01T02:12:04;14.30;99.90
21590;DHT22;10957;50.968;6.828;2022-09-01T02:17:08;14.20;99.90
21590;DHT22;10957;50.968;6.828;2022-09-01T02:22:09;14.30;99.90
21590;DHT22;10957;50.968;6.828;2022-09-01T02:27:10;13.80;99.90
21590;DHT22;10957;50.968;6.828;2022-09-01T02:32:11;14.20;99.90
21590;DHT22;10957;50.968;6.828;2022-09-01T02:37:12;14.20;99.90
21590;DHT22;10957;50.968;6.828;2022-09-01T02:42:13;13.80;99.90
21590;DHT22;10957;50.968;6.828;2022-09-01T02:47:14;14.10;99.90
21590;DHT22;10957;50.968;6.828;2022-09-01T02:52:16;14.20;99.90
21590;DHT22;10957;50.968;6.828;2022-09-01T02:57:20;14.40;99.90
21590;DHT22;10957;50.968;6.828;2022-09-01T03:02:22;14.00;99.90
21590;DHT22;10957;50.968;6.828;2022-09-01T03:07:28;14.20;99.90
21590;DHT22;10957;50.968;6.828;2022-09-01T03:12:30;14.20;99.90
21590;DHT22;10957;50.968;6.828;2022-09-01T03:17:30;13.70;99.90
21590;DHT22;10957;50.968;6.828;2022-09-01T03:22:31;13.60;99.90
21590;DHT22;10957;50.968;6.828;2022-09-01T03:27:33;14.30;99.90
21590;DHT22;10957;50.968;6.828;2022-09-01T03:32:34;13.90;99.90
21590;DHT22;10957;50.968;6.828;2022-09-01T03:37:34;13.80;99.90
21590;DHT22;10957;50.968;6.828;2022-09-01T03:42:37;13.80;99.90
21590;DHT22;10957;50.968;6.828;2022-09-01T03:47:39;14.00;99.90
21590;DHT22;10957;50.968;6.828;2022-09-01T03:52:41;13.80;99.90
21590;DHT22;10957;50.968;6.828;2022-09-01T03:57:43;13.30;99.90
21590;DHT22;10957;50.968;6.828;2022-09-01T04:02:51;13.60;99.90
21590;DHT22;10957;50.968;6.828;2022-09-01T04:07:57;13.80;99.90
21590;DHT22;10957;50.968;6.828;2022-09-01T04:13:03;13.10;99.90
21590;DHT22;10957;50.968;6.828;2022-09-01T04:18:05;13.40;99.90
21590;DHT22;10957;50.968;6.828;2022-09-01T04:23:26;13.30;99.90
21590;DHT22;10957;50.968;6.828;2022-09-01T04:28:31;13.40;99.90
21590;DHT22;10957;50.968;6.828;2022-09-01T04:33:36;13.50;99.90
21590;DHT22;10957;50.968;6.828;2022-09-01T04:38:40;13.40;99.90
21590;DHT22;10957;50.968;6.828;2022-09-01T04:43:41;12.90;99.90
21590;DHT22;10957;50.968;6.828;2022-09-01T04:48:42;13.00;99.90
21590;DHT22;10957;50.968;6.828;2022-09-01T04:53:44;13.20;99.90
21590;DHT22;10957;50.968;6.828;2022-09-01T04:58:52;13.00;99.90
21590;DHT22;10957;50.968;6.828;2022-09-01T05:03:55;12.60;99.90
21590;DHT22;10957;50.968;6.828;2022-09-01T05:09:11;12.50;99.90
21590;DHT22;10957;50.968;6.828;2022-09-01T05:14:19;12.70;99.90
21590;DHT22;10957;50.968;6.828;2022-09-01T05:19:21;12.80;99.90
21590;DHT22;10957;50.968;6.828;2022-09-01T05:24:27;13.30;99.90
21590;DHT22;10957;50.968;6.828;2022-09-01T05:29:31;13.40;99.90
21590;DHT22;10957;50.968;6.828;2022-09-01T05:34:32;13.40;99.90
21590;DHT22;10957;50.968;6.828;2022-09-01T05:39:36;13.50;99.90
21590;DHT22;10957;50.968;6.828;2022-09-01T05:44:39;13.40;99.90
21590;DHT22;10957;50.968;6.828;2022-09-01T05:49:43;13.70;99.90
21590;DHT22;10957;50.968;6.828;2022-09-01T05:54:44;13.30;99.90
21590;DHT22;10957;50.968;6.828;2022-09-01T05:59:45;13.30;99.90
21590;DHT22;10957;50.968;6.828;2022-09-01T06:04:54;13.50;99.90
21590;DHT22;10957;50.968;6.828;2022-09-01T06:10:00;14.00;99.90
21590;DHT22;10957;50.968;6.828;2022-09-01T06:15:01;14.00;99.90
21590;DHT22;10957;50.968;6.828;2022-09-01T06:20:02;14.40;99.90
21590;DHT22;10957;50.968;6.828;2022-09-01T06:25:11;14.60;99.90
21590;DHT22;10957;50.968;6.828;2022-09-01T06:30:16;14.80;99.90
21590;DHT22;10957;50.968;6.828;2022-09-01T06:35:25;15.00;99.90
21590;DHT22;10957;50.968;6.828;2022-09-01T06:40:29;14.80;99.90
21590;DHT22;10957;50.968;6.828;2022-09-01T06:45:30;15.10;99.90
21590;DHT22;10957;50.968;6.828;2022-09-01T06:50:31;15.70;99.90
21590;DHT22;10957;50.968;6.828;2022-09-01T06:55:32;16.20;99.90
21590;DHT22;10957;50.968;6.828;2022-09-01T07:00:38;16.60;99.90
21590;DHT22;10957;50.968;6.828;2022-09-01T07:05:46;17.00;99.90
21590;DHT22;10957;50.968;6.828;2022-09-01T07:10:49;17.50;99.90
21590;DHT22;10957;50.968;6.828;2022-09-01T07:15:52;18.00;43.00
21590;DHT22;10957;50.968;6.828;2022-09-01T07:20:54;18.50;33.10
21590;DHT22;10957;50.968;6.828;2022-09-01T07:25:55;19.00;13.40
21590;DHT22;10957;50.968;6.828;2022-09-01T07:31:07;19.40;4.10
21590;DHT22;10957;50.968;6.828;2022-09-01T07:36:11;19.60;1.00
21590;DHT22;10957;50.968;6.828;2022-09-01T07:41:12;19.80;1.00
21590;DHT22;10957;50.968;6.828;2022-09-01T07:46:20;20.20;1.00
21590;DHT22;10957;50.968;6.828;2022-09-01T07:51:24;20.30;1.00
21590;DHT22;10957;50.968;6.828;2022-09-01T07:56:26;20.50;1.00
21590;DHT22;10957;50.968;6.828;2022-09-01T08:01:29;20.80;1.00
21590;DHT22;10957;50.968;6.828;2022-09-01T08:06:30;20.80;1.00
21590;DHT22;10957;50.968;6.828;2022-09-01T08:11:32;21.00;1.00
21590;DHT22;10957;50.968;6.828;2022-09-01T08:16:33;21.40;1.00
21590;DHT22;10957;50.968;6.828;2022-09-01T08:21:36;21.60;1.00
21590;DHT22;10957;50.968;6.828;2022-09-01T08:26:43;22.10;1.00
21590;DHT22;10957;50.968;6.828;2022-09-01T08:31:46;21.90;1.00
21590;DHT22;10957;50.968;6.828;2022-09-01T08:36:47;22.80;1.00
21590;DHT22;10957;50.968;6.828;2022-09-01T08:41:57;22.80;1.00
21590;DHT22;10957;50.968;6.828;2022-09-01T08:47:06;23.50;1.00
21590;DHT22;10957;50.968;6.828;2022-09-01T08:52:31;23.90;1.00
21590;DHT22;10957;50.968;6.828;2022-09-01T08:57:42;24.10;1.00
21590;DHT22;10957;50.968;6.828;2022-09-01T09:19:10;24.70;1.00
21590;DHT22;10957;50.968;6.828;2022-09-01T09:24:30;24.70;1.00
21590;DHT22;10957;50.968;6.828;2022-09-01T09:30:00;25.20;1.00
21590;DHT22;10957;50.968;6.828;2022-09-01T09:35:27;25.10;1.00
21590;DHT22;10957;50.968;6.828;2022-09-01T09:40:29;25.20;1.00
21590;DHT22;10957;50.968;6.828;2022-09-01T09:45:38;25.20;1.00
21590;DHT22;10957;50.968;6.828;2022-09-01T09:50:40;25.00;1.00
21590;DHT22;10957;50.968;6.828;2022-09-01T09:55:55;24.80;1.00
21590;DHT22;10957;50.968;6.828;2022-09-01T10:06:10;24.50;1.00
21590;DHT22;10957;50.968;6.828;2022-09-01T10:11:27;24.50;1.00
21590;DHT22;10957;50.968;6.828;2022-09-01T10:16:31;24.60;1.00
21590;DHT22;10957;50.968;6.828;2022-09-01T10:21:37;24.80;1.00
21590;DHT22;10957;50.968;6.828;2022-09-01T10:26:40;24.90;1.00
21590;DHT22;10957;50.968;6.828;2022-09-01T10:31:43;24.70;1.00
21590;DHT22;10957;50.968;6.828;2022-09-01T10:36:46;24.00;1.00
21590;DHT22;10957;50.968;6.828;2022-09-01T10:46:50;23.60;1.00
21590;DHT22;10957;50.968;6.828;2022-09-01T10:51:52;23.90;1.00
21590;DHT22;10957;50.968;6.828;2022-09-01T10:56:54;23.60;1.00
21590;DHT22;10957;50.968;6.828;2022-09-01T11:07:28;23.60;1.00
21590;DHT22;10957;50.968;6.828;2022-09-01T11:12:46;23.20;1.00
21590;DHT22;10957;50.968;6.828;2022-09-01T11:38:17;24.00;1.00
21590;DHT22;10957;50.968;6.828;2022-09-01T11:43:19;24.00;1.00
21590;DHT22;10957;50.968;6.828;2022-09-01T11:48:20;23.70;1.00
21590;DHT22;10957;50.968;6.828;2022-09-01T11:53:22;23.80;1.00
21590;DHT22;10957;50.968;6.828;2022-09-01T12:03:28;24.20;1.00
21590;DHT22;10957;50.968;6.828;2022-09-01T12:08:33;23.70;1.00
21590;DHT22;10957;50.968;6.828;2022-09-01T12:13:35;24.10;1.00
21590;DHT22;10957;50.968;6.828;2022-09-01T12:18:44;24.00;1.00
21590;DHT22;10957;50.968;6.828;2022-09-01T12:23:46;23.70;1.00
21590;DHT22;10957;50.968;6.828;2022-09-01T12:28:47;23.60;1.00
21590;DHT22;10957;50.968;6.828;2022-09-01T12:33:50;23.60;1.00
21590;DHT22;10957;50.968;6.828;2022-09-01T12:38:54;23.50;1.00
21590;DHT22;10957;50.968;6.828;2022-09-01T12:43:55;23.70;1.00
21590;DHT22;10957;50.968;6.828;2022-09-01T12:49:15;23.90;1.00
21590;DHT22;10957;50.968;6.828;2022-09-01T12:54:23;23.80;1.00
21590;DHT22;10957;50.968;6.828;2022-09-01T12:59:25;24.00;1.00
21590;DHT22;10957;50.968;6.828;2022-09-01T13:04:28;24.00;1.00
21590;DHT22;10957;50.968;6.828;2022-09-01T13:09:33;24.20;1.00
21590;DHT22;10957;50.968;6.828;2022-09-01T13:14:34;24.50;1.00
21590;DHT22;10957;50.968;6.828;2022-09-01T13:19:35;25.00;1.00
21590;DHT22;10957;50.968;6.828;2022-09-01T13:24:37;25.20;1.00
21590;DHT22;10957;50.968;6.828;2022-09-01T13:29:40;25.40;1.00
21590;DHT22;10957;50.968;6.828;2022-09-01T13:34:41;25.60;1.00
21590;DHT22;10957;50.968;6.828;2022-09-01T13:39:42;25.60;1.00
21590;DHT22;10957;50.968;6.828;2022-09-01T13:44:43;25.40;1.00
21590;DHT22;10957;50.968;6.828;2022-09-01T13:49:44;25.50;1.00
21590;DHT22;10957;50.968;6.828;2022-09-01T13:54:45;25.60;1.00
21590;DHT22;10957;50.968;6.828;2022-09-01T13:59:47;25.80;1.00
21590;DHT22;10957;50.968;6.828;2022-09-01T14:04:47;24.90;1.00
21590;DHT22;10957;50.968;6.828;2022-09-01T14:09:48;25.30;1.00
21590;DHT22;10957;50.968;6.828;2022-09-01T14:14:49;25.50;1.00
21590;DHT22;10957;50.968;6.828;2022-09-01T14:19:50;26.10;1.00
21590;DHT22;10957;50.968;6.828;2022-09-01T14:24:52;26.10;1.00
21590;DHT22;10957;50.968;6.828;2022-09-01T14:29:52;26.00;1.00
21590;DHT22;10957;50.968;6.828;2022-09-01T14:34:55;25.50;1.00
21590;DHT22;10957;50.968;6.828;2022-09-01T14:39:56;25.10;1.00
21590;DHT22;10957;50.968;6.828;2022-09-01T14:44:57;24.90;1.00
21590;DHT22;10957;50.968;6.828;2022-09-01T14:50:00;24.70;1.00
21590;DHT22;10957;50.968;6.828;2022-09-01T14:55:01;24.90;1.00
21590;DHT22;10957;50.968;6.828;2022-09-01T15:00:04;24.80;1.00
21590;DHT22;10957;50.968;6.828;2022-09-01T15:05:10;25.10;1.00
21590;DHT22;10957;50.968;6.828;2022-09-01T15:10:14;25.30;1.00
21590;DHT22;10957;50.968;6.828;2022-09-01T15:15:15;25.00;1.00
21590;DHT22;10957;50.968;6.828;2022-09-01T15:20:16;24.70;1.00
21590;DHT22;10957;50.968;6.828;2022-09-01T15:25:51;25.00;1.00
21590;DHT22;10957;50.968;6.828;2022-09-01T15:30:53;25.40;1.00
21590;DHT22;10957;50.968;6.828;2022-09-01T15:35:53;25.60;1.00
21590;DHT22;10957;50.968;6.828;2022-09-01T15:40:54;26.00;1.00
21590;DHT22;10957;50.968;6.828;2022-09-01T15:45:58;26.20;1.00
21590;DHT22;10957;50.968;6.828;2022-09-01T15:56:18;25.50;1.00
21590;DHT22;10957;50.968;6.828;2022-09-01T16:01:20;25.30;1.00
21590;DHT22;10957;50.968;6.828;2022-09-01T16:06:22;25.30;1.00
21590;DHT22;10957;50.968;6.828;2022-09-01T16:11:24;25.00;1.00
21590;DHT22;10957;50.968;6.828;2022-09-01T16:22:09;24.70;1.00
21590;DHT22;10957;50.968;6.828;2022-09-01T16:27:14;24.50;1.00
21590;DHT22;10957;50.968;6.828;2022-09-01T16:32:16;24.60;1.00
21590;DHT22;10957;50.968;6.828;2022-09-01T16:37:31;24.60;1.00
21590;DHT22;10957;50.968;6.828;2022-09-01T16:42:59;24.50;1.00
21590;DHT22;10957;50.968;6.828;2022-09-01T16:53:45;24.50;1.00
21590;DHT22;10957;50.968;6.828;2022-09-01T17:14:44;24.20;1.00
21590;DHT22;10957;50.968;6.828;2022-09-01T17:19:47;24.10;1.00
21590;DHT22;10957;50.968;6.828;2022-09-01T17:24:57;23.90;1.00
21590;DHT22;10957;50.968;6.828;2022-09-01T17:30:01;23.80;1.00
21590;DHT22;10957;50.968;6.828;2022-09-01T17:35:33;23.70;1.00
21590;DHT22;10957;50.968;6.828;2022-09-01T17:46:01;23.10;1.00
21590;DHT22;10957;50.968;6.828;2022-09-01T17:51:21;22.80;1.00
21590;DHT22;10957;50.968;6.828;2022-09-01T18:02:19;22.40;1.00
21590;DHT22;10957;50.968;6.828;2022-09-01T18:12:39;21.70;1.00
21590;DHT22;10957;50.968;6.828;2022-09-01T18:17:43;21.50;1.00
21590;DHT22;10957;50.968;6.828;2022-09-01T18:22:59;21.20;1.00
21590;DHT22;10957;50.968;6.828;2022-09-01T18:28:03;20.90;1.00
21590;DHT22;10957;50.968;6.828;2022-09-01T18:33:23;20.70;1.00
21590;DHT22;10957;50.968;6.828;2022-09-01T18:38:33;20.50;1.00
21590;DHT22;10957;50.968;6.828;2022-09-01T18:43:40;20.20;1.00
21590;DHT22;10957;50.968;6.828;2022-09-01T18:53:55;19.90;1.00
21590;DHT22;10957;50.968;6.828;2022-09-01T19:04:29;19.50;1.00
21590;DHT22;10957;50.968;6.828;2022-09-01T19:09:35;19.40;1.00
21590;DHT22;10957;50.968;6.828;2022-09-01T19:14:51;19.30;1.00
21590;DHT22;10957;50.968;6.828;2022-09-01T19:20:04;19.20;1.00
21590;DHT22;10957;50.968;6.828;2022-09-01T19:25:10;19.10;1.00
21590;DHT22;10957;50.968;6.828;2022-09-01T19:30:30;19.00;1.00
21590;DHT22;10957;50.968;6.828;2022-09-01T19:35:33;18.80;1.00
21590;DHT22;10957;50.968;6.828;2022-09-01T19:40:38;18.80;1.00
21590;DHT22;10957;50.968;6.828;2022-09-01T19:46:11;18.60;1.00
21590;DHT22;10957;50.968;6.828;2022-09-01T19:51:41;18.50;1.00
21590;DHT22;10957;50.968;6.828;2022-09-01T19:56:54;18.50;1.00
21590;DHT22;10957;50.968;6.828;2022-09-01T20:02:01;18.30;1.00
21590;DHT22;10957;50.968;6.828;2022-09-01T20:07:08;18.20;1.00
21590;DHT22;10957;50.968;6.828;2022-09-01T20:12:25;18.40;1.00
21590;DHT22;10957;50.968;6.828;2022-09-01T20:17:50;18.50;1.00
21590;DHT22;10957;50.968;6.828;2022-09-01T20:23:24;18.40;1.00
21590;DHT22;10957;50.968;6.828;2022-09-01T20:39:41;18.10;1.00
21590;DHT22;10957;50.968;6.828;2022-09-01T20:45:12;18.00;1.00
21590;DHT22;10957;50.968;6.828;2022-09-01T20:50:13;17.90;1.00
21590;DHT22;10957;50.968;6.828;2022-09-01T21:00:28;18.40;1.00
21590;DHT22;10957;50.968;6.828;2022-09-01T21:05:51;18.40;1.00
21590;DHT22;10957;50.968;6.828;2022-09-01T21:11:30;18.50;1.00
21590;DHT22;10957;50.968;6.828;2022-09-01T21:22:09;18.60;1.00
21590;DHT22;10957;50.968;6.828;2022-09-01T21:27:26;18.40;1.00
21590;DHT22;10957;50.968;6.828;2022-09-01T21:32:30;18.20;1.00
21590;DHT22;10957;50.968;6.828;2022-09-01T21:37:31;18.00;1.00
21590;DHT22;10957;50.968;6.828;2022-09-01T21:42:37;18.00;1.00
21590;DHT22;10957;50.968;6.828;2022-09-01T21:47:39;17.80;1.00
21590;DHT22;10957;50.968;6.828;2022-09-01T21:52:40;17.60;1.00
21590;DHT22;10957;50.968;6.828;2022-09-01T21:57:46;17.60;1.00
21590;DHT22;10957;50.968;6.828;2022-09-01T22:02:52;17.40;1.00
21590;DHT22;10957;50.968;6.828;2022-09-01T22:07:53;17.20;1.00
21590;DHT22;10957;50.968;6.828;2022-09-01T22:12:56;17.10;1.00
21590;DHT22;10957;50.968;6.828;2022-09-01T22:17:57;16.90;1.00
21590;DHT22;10957;50.968;6.828;2022-09-01T22:22:58;16.80;1.00
21590;DHT22;10957;50.968;6.828;2022-09-01T22:28:04;16.70;1.00
21590;DHT22;10957;50.968;6.828;2022-09-01T22:33:05;16.60;1.00
21590;DHT22;10957;50.968;6.828;2022-09-01T22:38:07;16.90;1.00
21590;DHT22;10957;50.968;6.828;2022-09-01T22:43:08;17.00;1.00
21590;DHT22;10957;50.968;6.828;2022-09-01T22:48:09;17.20;1.00
21590;DHT22;10957;50.968;6.828;2022-09-01T22:53:10;17.50;1.00
21590;DHT22;10957;50.968;6.828;2022-09-01T22:58:12;17.50;1.00
21590;DHT22;10957;50.968;6.828;2022-09-01T23:03:13;17.80;1.00
21590;DHT22;10957;50.968;6.828;2022-09-01T23:08:16;17.80;1.00
21590;DHT22;10957;50.968;6.828;2022-09-01T23:13:17;17.80;1.00
21590;DHT22;10957;50.968;6.828;2022-09-01T23:18:18;17.60;1.00
21590;DHT22;10957;50.968;6.828;2022-09-01T23:23:18;17.40;1.00
21590;DHT22;10957;50.968;6.828;2022-09-01T23:28:20;17.40;1.00
21590;DHT22;10957;50.968;6.828;2022-09-01T23:33:23;17.20;1.00
21590;DHT22;10957;50.968;6.828;2022-09-01T23:38:24;17.20;1.00
21590;DHT22;10957;50.968;6.828;2022-09-01T23:43:25;17.10;1.00
21590;DHT22;10957;50.968;6.828;2022-09-01T23:48:27;16.90;1.00
21590;DHT22;10957;50.968;6.828;2022-09-01T23:53:30;16.80;1.00
21590;DHT22;10957;50.968;6.828;2022-09-01T23:58:31;16.90;1.00
